TimeEST,TemperatureF,Dew PointF,Humidity,Sea Level PressureIn,VisibilityMPH,Wind Direction,Wind SpeedMPH,Gust SpeedMPH,PrecipitationIn,Events,Conditions,WindDirDegrees,DateUTC
12:56 AM,35.1,30.0,82,30.19,9.0,NNE,5.8,-,0.02,Rain,Light Rain,30,2013-01-16 05:56:00
1:56 AM,34.0,30.0,85,30.16,8.0,NNE,9.2,-,0.05,Rain,Light Rain,30,2013-01-16 06:56:00
2:56 AM,34.0,30.0,85,30.16,8.0,NNE,8.1,-,0.04,Rain,Light Rain,20,2013-01-16 07:56:00
3:40 AM,33.8,30.2,87,30.11,5.0,NE,10.4,-,0.06,Rain,Light Rain,40,2013-01-16 08:40:00
3:56 AM,34.0,30.9,89,30.10,5.0,NE,10.4,-,0.09,Rain,Light Rain,40,2013-01-16 08:56:00
4:17 AM,33.8,30.2,87,30.08,5.0,NE,10.4,-,0.04,Rain,Rain,40,2013-01-16 09:17:00
4:56 AM,34.0,32.0,92,30.08,4.0,NNE,9.2,-,0.18,Rain,Rain,20,2013-01-16 09:56:00
5:56 AM,34.0,30.9,89,30.07,6.0,NNE,8.1,-,0.16,Rain,Ice Pellets,20,2013-01-16 10:56:00
6:09 AM,33.8,30.2,87,30.06,5.0,NE,8.1,-,0.02,Rain,Light Rain,40,2013-01-16 11:09:00
6:56 AM,34.0,32.0,92,30.04,4.0,ENE,8.1,-,0.08,Rain,Light Rain,70,2013-01-16 11:56:00
7:56 AM,35.1,33.1,92,30.05,4.0,North,6.9,-,0.07,Rain,Light Rain,10,2013-01-16 12:56:00
8:20 AM,35.6,33.8,93,30.03,2.5,NE,6.9,-,0.03,Rain,Light Rain,40,2013-01-16 13:20:00
8:56 AM,35.1,33.1,92,29.99,2.5,NE,6.9,-,0.04,Rain,Light Rain,50,2013-01-16 13:56:00
9:27 AM,35.6,33.8,93,29.95,3.0,NE,4.6,-,0.02,,Overcast,40,2013-01-16 14:27:00
9:56 AM,37.0,34.0,89,29.92,4.0,ENE,6.9,-,0.02,,Overcast,70,2013-01-16 14:56:00
10:56 AM,37.0,35.1,93,29.94,2.5,North,5.8,-,0.01,Rain,Light Rain,350,2013-01-16 15:56:00
11:56 AM,37.0,35.1,93,29.91,2.5,NNW,8.1,-,0.04,Rain,Light Rain,330,2013-01-16 16:56:00
12:27 PM,37.4,33.8,87,29.90,3.0,North,8.1,-,0.00,Rain,Light Rain,360,2013-01-16 17:27:00
12:56 PM,36.0,34.0,93,29.88,3.0,North,5.8,-,0.00,Rain,Light Rain,10,2013-01-16 17:56:00
1:56 PM,37.0,34.0,89,29.76,1.5,ESE,10.4,-,0.01,Rain,Light Rain,110,2013-01-16 18:56:00
2:56 PM,36.0,34.0,93,29.87,1.5,NW,15.0,-,0.00,,Overcast,320,2013-01-16 19:56:00
3:56 PM,36.0,34.0,93,29.87,2.0,NNW,8.1,-,N/A,,Overcast,330,2013-01-16 20:56:00
4:56 PM,36.0,34.0,93,29.88,1.5,WNW,6.9,-,N/A,,Overcast,300,2013-01-16 21:56:00
5:56 PM,36.0,34.0,93,29.89,3.0,WSW,4.6,-,N/A,,Overcast,240,2013-01-16 22:56:00
6:38 PM,35.6,33.8,93,29.89,4.0,WSW,5.8,-,N/A,,Overcast,250,2013-01-16 23:38:00
6:56 PM,36.0,34.0,93,29.88,4.0,SW,4.6,-,N/A,,Overcast,230,2013-01-16 23:56:00
7:56 PM,37.0,35.1,93,29.88,4.0,SW,5.8,-,N/A,,Overcast,230,2013-01-17 00:56:00
8:56 PM,37.0,34.0,89,29.90,9.0,WSW,11.5,-,N/A,,Overcast,250,2013-01-17 01:56:00
9:56 PM,37.0,34.0,89,29.89,9.0,WSW,6.9,-,N/A,,Overcast,250,2013-01-17 02:56:00
10:56 PM,36.0,33.1,89,29.89,8.0,WSW,5.8,-,N/A,,Overcast,240,2013-01-17 03:56:00
11:56 PM,36.0,33.1,89,29.90,7.0,WSW,5.8,-,N/A,,Overcast,240,2013-01-17 04:56:00